sensor_id;sensor_type;location;lat;lon;timestamp;temperature;humidity
15930;DHT22;8064;51.142;4.780;2023-05-07T00:00:39;15.80;99.90
15930;DHT22;8064;51.142;4.780;2023-05-07T00:03:05;15.80;99.90
15930;DHT22;8064;51.142;4.780;2023-05-07T00:05:32;15.80;99.90
15930;DHT22;8064;51.142;4.780;2023-05-07T00:07:58;15.80;99.90
15930;DHT22;8064;51.142;4.780;2023-05-07T00:10:23;15.80;99.90
15930;DHT22;8064;51.142;4.780;2023-05-07T00:12:50;15.80;99.90
15930;DHT22;8064;51.142;4.780;2023-05-07T00:15:16;15.80;99.90
15930;DHT22;8064;51.142;4.780;2023-05-07T00:17:42;15.80;99.90
15930;DHT22;8064;51.142;4.780;2023-05-07T00:20:08;15.80;99.90
15930;DHT22;8064;51.142;4.780;2023-05-07T00:22:34;15.80;99.90
15930;DHT22;8064;51.142;4.780;2023-05-07T00:25:00;15.80;99.90
15930;DHT22;8064;51.142;4.780;2023-05-07T00:27:25;15.80;99.90
15930;DHT22;8064;51.142;4.780;2023-05-07T00:29:51;15.80;99.90
15930;DHT22;8064;51.142;4.780;2023-05-07T00:32:17;15.80;99.90
15930;DHT22;8064;51.142;4.780;2023-05-07T00:34:43;15.80;99.90
15930;DHT22;8064;51.142;4.780;2023-05-07T00:37:09;15.80;99.90
15930;DHT22;8064;51.142;4.780;2023-05-07T00:39:37;15.80;99.90
15930;DHT22;8064;51.142;4.780;2023-05-07T00:42:03;15.80;99.90
15930;DHT22;8064;51.142;4.780;2023-05-07T00:44:29;15.80;99.90
15930;DHT22;8064;51.142;4.780;2023-05-07T00:46:57;15.80;99.90
15930;DHT22;8064;51.142;4.780;2023-05-07T00:49:26;15.80;99.90
15930;DHT22;8064;51.142;4.780;2023-05-07T00:51:58;15.80;99.90
15930;DHT22;8064;51.142;4.780;2023-05-07T00:54:26;15.80;99.90
15930;DHT22;8064;51.142;4.780;2023-05-07T00:56:52;15.90;99.90
15930;DHT22;8064;51.142;4.780;2023-05-07T00:59:17;15.80;99.90
15930;DHT22;8064;51.142;4.780;2023-05-07T01:01:44;15.90;99.90
15930;DHT22;8064;51.142;4.780;2023-05-07T01:04:10;15.90;99.90
15930;DHT22;8064;51.142;4.780;2023-05-07T01:06:36;15.90;99.90
15930;DHT22;8064;51.142;4.780;2023-05-07T01:09:02;15.90;99.90
15930;DHT22;8064;51.142;4.780;2023-05-07T01:11:30;15.90;99.90
15930;DHT22;8064;51.142;4.780;2023-05-07T01:13:57;15.90;99.90
15930;DHT22;8064;51.142;4.780;2023-05-07T01:16:24;15.90;99.90
15930;DHT22;8064;51.142;4.780;2023-05-07T01:18:50;15.90;99.90
15930;DHT22;8064;51.142;4.780;2023-05-07T01:21:17;15.90;99.90
15930;DHT22;8064;51.142;4.780;2023-05-07T01:23:44;15.90;99.90
15930;DHT22;8064;51.142;4.780;2023-05-07T01:26:10;15.90;99.90
15930;DHT22;8064;51.142;4.780;2023-05-07T01:28:36;15.90;99.90
15930;DHT22;8064;51.142;4.780;2023-05-07T01:31:03;15.90;99.90
15930;DHT22;8064;51.142;4.780;2023-05-07T01:33:33;15.90;99.90
15930;DHT22;8064;51.142;4.780;2023-05-07T01:36:01;15.90;99.90
15930;DHT22;8064;51.142;4.780;2023-05-07T01:38:29;15.90;99.90
15930;DHT22;8064;51.142;4.780;2023-05-07T01:40:56;15.90;99.90
15930;DHT22;8064;51.142;4.780;2023-05-07T01:43:21;15.90;99.90
15930;DHT22;8064;51.142;4.780;2023-05-07T01:45:48;15.80;99.90
15930;DHT22;8064;51.142;4.780;2023-05-07T01:48:15;15.90;99.90
15930;DHT22;8064;51.142;4.780;2023-05-07T01:50:42;15.80;99.90
15930;DHT22;8064;51.142;4.780;2023-05-07T01:53:08;15.80;99.90
15930;DHT22;8064;51.142;4.780;2023-05-07T01:55:34;15.80;99.90
15930;DHT22;8064;51.142;4.780;2023-05-07T01:58:02;15.80;99.90
15930;DHT22;8064;51.142;4.780;2023-05-07T02:00:28;15.80;99.90
15930;DHT22;8064;51.142;4.780;2023-05-07T02:02:54;15.80;99.90
15930;DHT22;8064;51.142;4.780;2023-05-07T02:05:20;15.80;99.90
15930;DHT22;8064;51.142;4.780;2023-05-07T02:07:46;15.70;99.90
15930;DHT22;8064;51.142;4.780;2023-05-07T02:10:12;15.70;99.90
15930;DHT22;8064;51.142;4.780;2023-05-07T02:12:37;15.70;99.90
15930;DHT22;8064;51.142;4.780;2023-05-07T02:15:03;15.70;99.90
15930;DHT22;8064;51.142;4.780;2023-05-07T02:17:29;15.70;99.90
15930;DHT22;8064;51.142;4.780;2023-05-07T02:19:57;15.60;99.90
15930;DHT22;8064;51.142;4.780;2023-05-07T02:22:23;15.60;99.90
15930;DHT22;8064;51.142;4.780;2023-05-07T02:24:48;15.60;99.90
15930;DHT22;8064;51.142;4.780;2023-05-07T02:27:14;15.60;99.90
15930;DHT22;8064;51.142;4.780;2023-05-07T02:29:40;15.50;99.90
15930;DHT22;8064;51.142;4.780;2023-05-07T02:32:06;15.50;99.90
15930;DHT22;8064;51.142;4.780;2023-05-07T02:34:32;15.50;99.90
15930;DHT22;8064;51.142;4.780;2023-05-07T02:36:57;15.50;99.90
15930;DHT22;8064;51.142;4.780;2023-05-07T02:39:23;15.50;99.90
15930;DHT22;8064;51.142;4.780;2023-05-07T02:41:49;15.50;99.90
15930;DHT22;8064;51.142;4.780;2023-05-07T02:44:15;15.50;99.90
15930;DHT22;8064;51.142;4.780;2023-05-07T02:46:41;15.50;99.90
15930;DHT22;8064;51.142;4.780;2023-05-07T02:49:06;15.50;99.90
15930;DHT22;8064;51.142;4.780;2023-05-07T02:51:32;15.50;99.90
15930;DHT22;8064;51.142;4.780;2023-05-07T02:53:58;15.50;99.90
15930;DHT22;8064;51.142;4.780;2023-05-07T02:56:26;15.50;99.90
15930;DHT22;8064;51.142;4.780;2023-05-07T02:58:52;15.50;99.90
15930;DHT22;8064;51.142;4.780;2023-05-07T03:01:18;15.50;99.90
15930;DHT22;8064;51.142;4.780;2023-05-07T03:03:44;15.50;99.90
15930;DHT22;8064;51.142;4.780;2023-05-07T03:06:10;15.50;99.90
15930;DHT22;8064;51.142;4.780;2023-05-07T03:08:35;15.50;99.90
15930;DHT22;8064;51.142;4.780;2023-05-07T03:11:02;15.50;99.90
15930;DHT22;8064;51.142;4.780;2023-05-07T03:13:28;15.50;99.90
15930;DHT22;8064;51.142;4.780;2023-05-07T03:15:53;15.50;99.90
15930;DHT22;8064;51.142;4.780;2023-05-07T03:18:19;15.50;99.90
15930;DHT22;8064;51.142;4.780;2023-05-07T03:20:45;15.50;99.90
15930;DHT22;8064;51.142;4.780;2023-05-07T03:23:11;15.50;99.90
15930;DHT22;8064;51.142;4.780;2023-05-07T03:25:37;15.50;99.90
15930;DHT22;8064;51.142;4.780;2023-05-07T03:28:03;15.50;99.90
15930;DHT22;8064;51.142;4.780;2023-05-07T03:30:28;15.50;99.90
15930;DHT22;8064;51.142;4.780;2023-05-07T03:32:55;15.50;99.90
15930;DHT22;8064;51.142;4.780;2023-05-07T03:35:20;15.50;99.90
15930;DHT22;8064;51.142;4.780;2023-05-07T03:37:46;15.50;99.90
15930;DHT22;8064;51.142;4.780;2023-05-07T03:40:12;15.50;99.90
15930;DHT22;8064;51.142;4.780;2023-05-07T03:42:38;15.50;99.90
15930;DHT22;8064;51.142;4.780;2023-05-07T03:45:04;15.50;99.90
15930;DHT22;8064;51.142;4.780;2023-05-07T03:47:30;15.50;99.90
15930;DHT22;8064;51.142;4.780;2023-05-07T03:49:56;15.50;99.90
15930;DHT22;8064;51.142;4.780;2023-05-07T03:52:22;15.50;99.90
15930;DHT22;8064;51.142;4.780;2023-05-07T03:54:52;15.50;99.90
15930;DHT22;8064;51.142;4.780;2023-05-07T03:57:18;15.50;99.90
15930;DHT22;8064;51.142;4.780;2023-05-07T03:59:43;15.50;99.90
15930;DHT22;8064;51.142;4.780;2023-05-07T04:02:09;15.50;99.90
15930;DHT22;8064;51.142;4.780;2023-05-07T04:04:35;15.50;99.90
15930;DHT22;8064;51.142;4.780;2023-05-07T04:07:01;15.50;99.90
15930;DHT22;8064;51.142;4.780;2023-05-07T04:09:27;15.50;99.90
15930;DHT22;8064;51.142;4.780;2023-05-07T04:11:52;15.50;99.90
15930;DHT22;8064;51.142;4.780;2023-05-07T04:14:18;15.50;99.90
15930;DHT22;8064;51.142;4.780;2023-05-07T04:16:44;15.50;99.90
15930;DHT22;8064;51.142;4.780;2023-05-07T04:19:10;15.50;99.90
15930;DHT22;8064;51.142;4.780;2023-05-07T04:21:35;15.50;99.90
15930;DHT22;8064;51.142;4.780;2023-05-07T04:24:03;15.50;99.90
15930;DHT22;8064;51.142;4.780;2023-05-07T04:26:29;15.40;99.90
15930;DHT22;8064;51.142;4.780;2023-05-07T04:28:55;15.50;99.90
15930;DHT22;8064;51.142;4.780;2023-05-07T04:31:22;15.40;99.90
15930;DHT22;8064;51.142;4.780;2023-05-07T04:33:47;15.40;99.90
15930;DHT22;8064;51.142;4.780;2023-05-07T04:36:13;15.50;99.90
15930;DHT22;8064;51.142;4.780;2023-05-07T04:38:39;15.40;99.90
15930;DHT22;8064;51.142;4.780;2023-05-07T04:41:06;15.50;99.90
15930;DHT22;8064;51.142;4.780;2023-05-07T04:43:32;15.50;99.90
15930;DHT22;8064;51.142;4.780;2023-05-07T04:45:58;15.50;99.90
15930;DHT22;8064;51.142;4.780;2023-05-07T04:48:24;15.50;99.90
15930;DHT22;8064;51.142;4.780;2023-05-07T04:50:50;15.50;99.90
15930;DHT22;8064;51.142;4.780;2023-05-07T04:53:17;15.50;99.90
15930;DHT22;8064;51.142;4.780;2023-05-07T04:55:44;15.50;99.90
15930;DHT22;8064;51.142;4.780;2023-05-07T04:58:11;15.60;99.90
15930;DHT22;8064;51.142;4.780;2023-05-07T05:00:37;15.60;99.90
15930;DHT22;8064;51.142;4.780;2023-05-07T05:03:05;15.60;99.90
15930;DHT22;8064;51.142;4.780;2023-05-07T05:05:31;15.60;99.90
15930;DHT22;8064;51.142;4.780;2023-05-07T05:07:57;15.60;99.90
15930;DHT22;8064;51.142;4.780;2023-05-07T05:10:22;15.70;99.90
15930;DHT22;8064;51.142;4.780;2023-05-07T05:12:48;15.70;99.90
15930;DHT22;8064;51.142;4.780;2023-05-07T05:15:14;15.70;99.90
15930;DHT22;8064;51.142;4.780;2023-05-07T05:17:40;15.70;99.90
15930;DHT22;8064;51.142;4.780;2023-05-07T05:20:06;15.80;99.90
15930;DHT22;8064;51.142;4.780;2023-05-07T05:22:32;15.80;99.90
15930;DHT22;8064;51.142;4.780;2023-05-07T05:24:58;15.80;99.90
15930;DHT22;8064;51.142;4.780;2023-05-07T05:27:24;15.90;99.90
15930;DHT22;8064;51.142;4.780;2023-05-07T05:29:50;15.90;99.90
15930;DHT22;8064;51.142;4.780;2023-05-07T05:32:15;15.90;99.90
15930;DHT22;8064;51.142;4.780;2023-05-07T05:34:41;15.90;99.90
15930;DHT22;8064;51.142;4.780;2023-05-07T05:37:07;16.00;99.90
15930;DHT22;8064;51.142;4.780;2023-05-07T05:39:33;16.00;99.90
15930;DHT22;8064;51.142;4.780;2023-05-07T05:41:59;16.10;99.90
15930;DHT22;8064;51.142;4.780;2023-05-07T05:44:25;16.10;99.90
15930;DHT22;8064;51.142;4.780;2023-05-07T05:46:51;16.10;99.90
15930;DHT22;8064;51.142;4.780;2023-05-07T05:49:17;16.20;99.90
15930;DHT22;8064;51.142;4.780;2023-05-07T05:51:43;16.20;99.90
15930;DHT22;8064;51.142;4.780;2023-05-07T05:54:09;16.20;99.90
15930;DHT22;8064;51.142;4.780;2023-05-07T05:56:36;16.30;99.90
15930;DHT22;8064;51.142;4.780;2023-05-07T05:59:02;16.30;99.90
15930;DHT22;8064;51.142;4.780;2023-05-07T06:01:28;16.30;99.90
15930;DHT22;8064;51.142;4.780;2023-05-07T06:03:54;16.30;99.90
15930;DHT22;8064;51.142;4.780;2023-05-07T06:06:20;16.30;99.90
15930;DHT22;8064;51.142;4.780;2023-05-07T06:08:46;16.30;99.90
15930;DHT22;8064;51.142;4.780;2023-05-07T06:11:11;16.40;99.90
15930;DHT22;8064;51.142;4.780;2023-05-07T06:13:37;16.40;99.90
15930;DHT22;8064;51.142;4.780;2023-05-07T06:16:03;16.50;99.90
15930;DHT22;8064;51.142;4.780;2023-05-07T06:18:29;16.50;99.90
15930;DHT22;8064;51.142;4.780;2023-05-07T06:20:55;16.50;99.90
15930;DHT22;8064;51.142;4.780;2023-05-07T06:23:20;16.50;99.90
15930;DHT22;8064;51.142;4.780;2023-05-07T06:25:49;16.60;99.90
15930;DHT22;8064;51.142;4.780;2023-05-07T06:28:16;16.60;99.90
15930;DHT22;8064;51.142;4.780;2023-05-07T06:30:41;16.60;99.90
15930;DHT22;8064;51.142;4.780;2023-05-07T06:33:08;16.70;99.90
15930;DHT22;8064;51.142;4.780;2023-05-07T06:35:34;16.70;99.90
15930;DHT22;8064;51.142;4.780;2023-05-07T06:38:00;16.70;99.90
15930;DHT22;8064;51.142;4.780;2023-05-07T06:40:26;16.70;99.90
15930;DHT22;8064;51.142;4.780;2023-05-07T06:42:52;16.80;99.90
15930;DHT22;8064;51.142;4.780;2023-05-07T06:45:19;16.80;99.90
15930;DHT22;8064;51.142;4.780;2023-05-07T06:47:45;16.80;99.90
15930;DHT22;8064;51.142;4.780;2023-05-07T06:50:11;16.80;99.90
15930;DHT22;8064;51.142;4.780;2023-05-07T06:52:37;16.80;99.90
15930;DHT22;8064;51.142;4.780;2023-05-07T06:55:03;16.90;99.90
15930;DHT22;8064;51.142;4.780;2023-05-07T06:57:29;16.90;99.90
15930;DHT22;8064;51.142;4.780;2023-05-07T06:59:55;16.90;99.90
15930;DHT22;8064;51.142;4.780;2023-05-07T07:02:21;16.90;99.90
15930;DHT22;8064;51.142;4.780;2023-05-07T07:04:47;16.90;99.90
15930;DHT22;8064;51.142;4.780;2023-05-07T07:07:13;16.90;99.90
15930;DHT22;8064;51.142;4.780;2023-05-07T07:09:38;16.90;99.90
15930;DHT22;8064;51.142;4.780;2023-05-07T07:12:04;16.90;99.90
15930;DHT22;8064;51.142;4.780;2023-05-07T07:14:30;17.00;99.90
15930;DHT22;8064;51.142;4.780;2023-05-07T07:16:56;17.00;99.90
15930;DHT22;8064;51.142;4.780;2023-05-07T07:19:22;17.00;99.90
15930;DHT22;8064;51.142;4.780;2023-05-07T07:21:47;17.00;99.90
15930;DHT22;8064;51.142;4.780;2023-05-07T07:24:17;17.00;99.90
15930;DHT22;8064;51.142;4.780;2023-05-07T07:26:52;17.00;99.90
15930;DHT22;8064;51.142;4.780;2023-05-07T07:29:37;17.00;99.90
15930;DHT22;8064;51.142;4.780;2023-05-07T07:32:05;17.00;99.90
15930;DHT22;8064;51.142;4.780;2023-05-07T07:34:33;17.10;99.90
15930;DHT22;8064;51.142;4.780;2023-05-07T07:36:58;17.10;99.90
15930;DHT22;8064;51.142;4.780;2023-05-07T07:39:30;17.10;99.90
15930;DHT22;8064;51.142;4.780;2023-05-07T07:41:56;17.20;99.90
15930;DHT22;8064;51.142;4.780;2023-05-07T07:44:22;17.20;99.90
15930;DHT22;8064;51.142;4.780;2023-05-07T07:46:48;17.20;99.90
15930;DHT22;8064;51.142;4.780;2023-05-07T07:49:14;17.30;99.90
15930;DHT22;8064;51.142;4.780;2023-05-07T07:51:40;17.40;99.90
15930;DHT22;8064;51.142;4.780;2023-05-07T07:54:06;17.50;99.90
15930;DHT22;8064;51.142;4.780;2023-05-07T07:56:32;17.60;99.90
15930;DHT22;8064;51.142;4.780;2023-05-07T07:59:00;17.70;99.90
15930;DHT22;8064;51.142;4.780;2023-05-07T08:01:25;17.80;99.90
15930;DHT22;8064;51.142;4.780;2023-05-07T08:03:52;17.80;99.90
15930;DHT22;8064;51.142;4.780;2023-05-07T08:06:18;17.90;99.90
15930;DHT22;8064;51.142;4.780;2023-05-07T08:08:44;18.00;99.90
15930;DHT22;8064;51.142;4.780;2023-05-07T08:11:10;18.00;99.90
15930;DHT22;8064;51.142;4.780;2023-05-07T08:13:36;18.00;99.90
15930;DHT22;8064;51.142;4.780;2023-05-07T08:16:04;18.00;99.90
15930;DHT22;8064;51.142;4.780;2023-05-07T08:18:30;18.00;99.90
15930;DHT22;8064;51.142;4.780;2023-05-07T08:20:55;18.10;99.90
15930;DHT22;8064;51.142;4.780;2023-05-07T08:23:22;18.10;99.90
15930;DHT22;8064;51.142;4.780;2023-05-07T08:25:49;18.20;99.90
15930;DHT22;8064;51.142;4.780;2023-05-07T08:28:15;18.20;99.90
15930;DHT22;8064;51.142;4.780;2023-05-07T08:30:40;18.20;99.90
15930;DHT22;8064;51.142;4.780;2023-05-07T08:33:08;18.30;99.90
15930;DHT22;8064;51.142;4.780;2023-05-07T08:35:34;18.30;99.90
15930;DHT22;8064;51.142;4.780;2023-05-07T08:37:59;18.30;99.90
15930;DHT22;8064;51.142;4.780;2023-05-07T08:40:26;18.30;99.90
15930;DHT22;8064;51.142;4.780;2023-05-07T08:42:53;18.30;99.90
15930;DHT22;8064;51.142;4.780;2023-05-07T08:45:20;18.40;99.90
15930;DHT22;8064;51.142;4.780;2023-05-07T08:47:52;18.40;99.90
15930;DHT22;8064;51.142;4.780;2023-05-07T08:50:20;18.40;99.90
15930;DHT22;8064;51.142;4.780;2023-05-07T08:52:47;18.40;99.90
15930;DHT22;8064;51.142;4.780;2023-05-07T08:55:13;18.30;99.90
15930;DHT22;8064;51.142;4.780;2023-05-07T08:57:40;18.40;99.90
15930;DHT22;8064;51.142;4.780;2023-05-07T09:00:06;18.30;99.90
15930;DHT22;8064;51.142;4.780;2023-05-07T09:02:34;18.30;99.90
15930;DHT22;8064;51.142;4.780;2023-05-07T09:05:01;18.30;99.90
15930;DHT22;8064;51.142;4.780;2023-05-07T09:07:26;18.30;99.90
15930;DHT22;8064;51.142;4.780;2023-05-07T09:09:52;18.30;99.90
15930;DHT22;8064;51.142;4.780;2023-05-07T09:12:21;18.30;99.90
15930;DHT22;8064;51.142;4.780;2023-05-07T09:14:47;18.30;99.90
15930;DHT22;8064;51.142;4.780;2023-05-07T09:17:13;18.20;99.90
15930;DHT22;8064;51.142;4.780;2023-05-07T09:19:40;18.20;99.90
15930;DHT22;8064;51.142;4.780;2023-05-07T09:22:06;18.20;99.90
15930;DHT22;8064;51.142;4.780;2023-05-07T09:24:33;18.10;99.90
15930;DHT22;8064;51.142;4.780;2023-05-07T09:27:02;18.10;99.90
15930;DHT22;8064;51.142;4.780;2023-05-07T09:29:28;18.10;99.90
15930;DHT22;8064;51.142;4.780;2023-05-07T09:31:56;18.10;99.90
15930;DHT22;8064;51.142;4.780;2023-05-07T09:34:21;18.10;99.90
15930;DHT22;8064;51.142;4.780;2023-05-07T09:36:47;18.10;99.90
15930;DHT22;8064;51.142;4.780;2023-05-07T09:39:13;18.10;99.90
15930;DHT22;8064;51.142;4.780;2023-05-07T09:41:53;18.10;99.90
15930;DHT22;8064;51.142;4.780;2023-05-07T09:44:21;18.00;99.90
15930;DHT22;8064;51.142;4.780;2023-05-07T09:46:53;18.00;99.90
15930;DHT22;8064;51.142;4.780;2023-05-07T09:49:23;18.00;99.90
15930;DHT22;8064;51.142;4.780;2023-05-07T09:51:51;18.00;99.90
15930;DHT22;8064;51.142;4.780;2023-05-07T09:54:18;18.00;99.90
15930;DHT22;8064;51.142;4.780;2023-05-07T09:56:45;18.00;99.90
15930;DHT22;8064;51.142;4.780;2023-05-07T09:59:14;18.00;99.90
15930;DHT22;8064;51.142;4.780;2023-05-07T10:01:42;18.00;99.90
15930;DHT22;8064;51.142;4.780;2023-05-07T10:04:09;18.00;99.90
15930;DHT22;8064;51.142;4.780;2023-05-07T10:06:36;18.00;99.90
15930;DHT22;8064;51.142;4.780;2023-05-07T10:09:03;18.00;99.90
15930;DHT22;8064;51.142;4.780;2023-05-07T10:11:35;18.10;99.90
15930;DHT22;8064;51.142;4.780;2023-05-07T10:14:02;18.00;99.90
15930;DHT22;8064;51.142;4.780;2023-05-07T10:16:38;18.00;99.90
15930;DHT22;8064;51.142;4.780;2023-05-07T10:19:05;18.00;99.90
15930;DHT22;8064;51.142;4.780;2023-05-07T10:21:36;18.00;99.90
15930;DHT22;8064;51.142;4.780;2023-05-07T10:24:05;18.10;99.90
15930;DHT22;8064;51.142;4.780;2023-05-07T10:26:32;18.00;99.90
15930;DHT22;8064;51.142;4.780;2023-05-07T10:29:05;18.00;99.90
15930;DHT22;8064;51.142;4.780;2023-05-07T10:34:32;18.00;99.90
15930;DHT22;8064;51.142;4.780;2023-05-07T10:37:00;18.00;99.90
15930;DHT22;8064;51.142;4.780;2023-05-07T10:39:27;18.00;99.90
15930;DHT22;8064;51.142;4.780;2023-05-07T10:41:53;18.00;99.90
15930;DHT22;8064;51.142;4.780;2023-05-07T10:44:37;18.00;99.90
15930;DHT22;8064;51.142;4.780;2023-05-07T10:47:05;18.00;99.90
15930;DHT22;8064;51.142;4.780;2023-05-07T10:49:31;18.00;99.90
15930;DHT22;8064;51.142;4.780;2023-05-07T10:52:17;18.10;99.90
15930;DHT22;8064;51.142;4.780;2023-05-07T10:54:43;18.00;99.90
15930;DHT22;8064;51.142;4.780;2023-05-07T10:57:38;18.10;99.90
15930;DHT22;8064;51.142;4.780;2023-05-07T11:05:29;18.10;99.90
15930;DHT22;8064;51.142;4.780;2023-05-07T11:07:56;18.10;99.90
15930;DHT22;8064;51.142;4.780;2023-05-07T11:10:22;18.10;99.90
15930;DHT22;8064;51.142;4.780;2023-05-07T11:12:50;18.10;99.90
15930;DHT22;8064;51.142;4.780;2023-05-07T11:15:35;18.10;99.90
15930;DHT22;8064;51.142;4.780;2023-05-07T11:18:02;18.10;99.90
15930;DHT22;8064;51.142;4.780;2023-05-07T11:20:50;18.20;99.90
15930;DHT22;8064;51.142;4.780;2023-05-07T11:26:02;18.20;99.90
15930;DHT22;8064;51.142;4.780;2023-05-07T11:28:30;18.20;99.90
15930;DHT22;8064;51.142;4.780;2023-05-07T11:30:57;18.20;99.90
15930;DHT22;8064;51.142;4.780;2023-05-07T11:33:23;18.20;99.90
15930;DHT22;8064;51.142;4.780;2023-05-07T11:35:53;18.20;99.90
15930;DHT22;8064;51.142;4.780;2023-05-07T11:38:19;18.20;99.90
15930;DHT22;8064;51.142;4.780;2023-05-07T11:41:03;18.20;99.90
15930;DHT22;8064;51.142;4.780;2023-05-07T11:43:31;18.30;99.90
15930;DHT22;8064;51.142;4.780;2023-05-07T11:46:17;18.20;99.90
15930;DHT22;8064;51.142;4.780;2023-05-07T11:48:43;18.20;99.90
15930;DHT22;8064;51.142;4.780;2023-05-07T11:51:09;18.20;99.90
15930;DHT22;8064;51.142;4.780;2023-05-07T11:53:39;18.20;99.90
15930;DHT22;8064;51.142;4.780;2023-05-07T11:56:08;18.30;99.90
15930;DHT22;8064;51.142;4.780;2023-05-07T11:58:34;18.30;99.90
15930;DHT22;8064;51.142;4.780;2023-05-07T12:00:59;18.30;99.90
15930;DHT22;8064;51.142;4.780;2023-05-07T12:03:25;18.30;99.90
15930;DHT22;8064;51.142;4.780;2023-05-07T12:05:51;18.30;99.90
15930;DHT22;8064;51.142;4.780;2023-05-07T12:08:19;18.30;99.90
15930;DHT22;8064;51.142;4.780;2023-05-07T12:10:47;18.30;99.90
15930;DHT22;8064;51.142;4.780;2023-05-07T12:13:25;18.30;99.90
15930;DHT22;8064;51.142;4.780;2023-05-07T12:15:52;18.40;99.90
15930;DHT22;8064;51.142;4.780;2023-05-07T12:18:19;18.40;99.90
15930;DHT22;8064;51.142;4.780;2023-05-07T12:20:45;18.50;99.90
15930;DHT22;8064;51.142;4.780;2023-05-07T12:23:12;18.50;99.90
15930;DHT22;8064;51.142;4.780;2023-05-07T12:25:39;18.50;99.90
15930;DHT22;8064;51.142;4.780;2023-05-07T12:28:07;18.60;99.90
15930;DHT22;8064;51.142;4.780;2023-05-07T12:30:52;18.50;99.90
15930;DHT22;8064;51.142;4.780;2023-05-07T12:33:23;18.50;99.90
15930;DHT22;8064;51.142;4.780;2023-05-07T12:35:49;18.50;99.90
15930;DHT22;8064;51.142;4.780;2023-05-07T12:38:17;18.60;99.90
15930;DHT22;8064;51.142;4.780;2023-05-07T12:40:45;18.60;99.90
15930;DHT22;8064;51.142;4.780;2023-05-07T12:43:24;18.60;99.90
15930;DHT22;8064;51.142;4.780;2023-05-07T12:45:51;18.70;99.90
15930;DHT22;8064;51.142;4.780;2023-05-07T12:48:17;18.70;99.90
15930;DHT22;8064;51.142;4.780;2023-05-07T12:50:44;18.70;99.90
15930;DHT22;8064;51.142;4.780;2023-05-07T12:53:11;18.80;99.90
15930;DHT22;8064;51.142;4.780;2023-05-07T12:55:57;18.80;99.90
15930;DHT22;8064;51.142;4.780;2023-05-07T12:58:42;18.90;99.90
15930;DHT22;8064;51.142;4.780;2023-05-07T13:01:08;19.00;99.90
15930;DHT22;8064;51.142;4.780;2023-05-07T13:03:37;18.90;99.90
15930;DHT22;8064;51.142;4.780;2023-05-07T13:06:05;19.00;99.90
15930;DHT22;8064;51.142;4.780;2023-05-07T13:08:43;19.00;99.90
15930;DHT22;8064;51.142;4.780;2023-05-07T13:11:10;19.00;99.90
15930;DHT22;8064;51.142;4.780;2023-05-07T13:13:37;19.10;99.90
15930;DHT22;8064;51.142;4.780;2023-05-07T13:16:05;19.10;99.90
15930;DHT22;8064;51.142;4.780;2023-05-07T13:18:32;19.10;99.90
15930;DHT22;8064;51.142;4.780;2023-05-07T13:20:58;19.10;99.90
15930;DHT22;8064;51.142;4.780;2023-05-07T13:23:25;19.10;99.90
15930;DHT22;8064;51.142;4.780;2023-05-07T13:25:50;19.20;99.90
15930;DHT22;8064;51.142;4.780;2023-05-07T13:28:18;19.20;99.90
15930;DHT22;8064;51.142;4.780;2023-05-07T13:30:44;19.20;99.90
15930;DHT22;8064;51.142;4.780;2023-05-07T13:33:10;19.20;99.90
15930;DHT22;8064;51.142;4.780;2023-05-07T13:35:36;19.20;99.90
15930;DHT22;8064;51.142;4.780;2023-05-07T13:38:02;19.20;99.90
15930;DHT22;8064;51.142;4.780;2023-05-07T13:40:27;19.20;99.90
15930;DHT22;8064;51.142;4.780;2023-05-07T13:42:53;19.30;99.90
15930;DHT22;8064;51.142;4.780;2023-05-07T13:45:19;19.30;99.90
15930;DHT22;8064;51.142;4.780;2023-05-07T13:47:46;19.40;99.90
15930;DHT22;8064;51.142;4.780;2023-05-07T13:50:12;19.40;99.90
15930;DHT22;8064;51.142;4.780;2023-05-07T13:52:41;19.40;99.90
15930;DHT22;8064;51.142;4.780;2023-05-07T13:55:09;19.50;99.90
15930;DHT22;8064;51.142;4.780;2023-05-07T13:57:36;19.50;99.90
15930;DHT22;8064;51.142;4.780;2023-05-07T14:00:03;19.40;99.90
15930;DHT22;8064;51.142;4.780;2023-05-07T14:02:31;19.50;99.90
15930;DHT22;8064;51.142;4.780;2023-05-07T14:04:56;19.50;99.90
15930;DHT22;8064;51.142;4.780;2023-05-07T14:07:22;19.50;99.90
15930;DHT22;8064;51.142;4.780;2023-05-07T14:09:48;19.50;99.90
15930;DHT22;8064;51.142;4.780;2023-05-07T14:12:14;19.60;99.90
15930;DHT22;8064;51.142;4.780;2023-05-07T14:14:40;19.60;99.90
15930;DHT22;8064;51.142;4.780;2023-05-07T14:17:05;19.70;99.90
15930;DHT22;8064;51.142;4.780;2023-05-07T14:19:31;19.70;99.90
15930;DHT22;8064;51.142;4.780;2023-05-07T14:21:57;19.70;99.90
15930;DHT22;8064;51.142;4.780;2023-05-07T14:24:24;19.80;99.90
15930;DHT22;8064;51.142;4.780;2023-05-07T14:26:50;19.80;99.90
15930;DHT22;8064;51.142;4.780;2023-05-07T14:29:16;19.80;99.90
15930;DHT22;8064;51.142;4.780;2023-05-07T14:31:45;19.80;99.90
15930;DHT22;8064;51.142;4.780;2023-05-07T14:34:11;19.90;99.90
15930;DHT22;8064;51.142;4.780;2023-05-07T14:36:37;19.90;99.90
15930;DHT22;8064;51.142;4.780;2023-05-07T14:39:03;19.90;99.90
15930;DHT22;8064;51.142;4.780;2023-05-07T14:41:29;19.90;99.90
15930;DHT22;8064;51.142;4.780;2023-05-07T14:43:56;19.90;99.90
15930;DHT22;8064;51.142;4.780;2023-05-07T14:46:24;19.90;99.90
15930;DHT22;8064;51.142;4.780;2023-05-07T14:48:50;19.90;99.90
15930;DHT22;8064;51.142;4.780;2023-05-07T14:51:15;19.90;99.90
15930;DHT22;8064;51.142;4.780;2023-05-07T14:53:42;19.90;99.90
15930;DHT22;8064;51.142;4.780;2023-05-07T14:56:07;19.90;99.90
15930;DHT22;8064;51.142;4.780;2023-05-07T14:58:34;19.80;99.90
15930;DHT22;8064;51.142;4.780;2023-05-07T15:01:00;19.80;99.90
15930;DHT22;8064;51.142;4.780;2023-05-07T15:03:26;19.90;99.90
15930;DHT22;8064;51.142;4.780;2023-05-07T15:05:52;19.90;99.90
15930;DHT22;8064;51.142;4.780;2023-05-07T15:08:18;19.80;99.90
15930;DHT22;8064;51.142;4.780;2023-05-07T15:10:44;19.80;99.90
15930;DHT22;8064;51.142;4.780;2023-05-07T15:13:11;19.80;99.90
15930;DHT22;8064;51.142;4.780;2023-05-07T15:15:38;19.80;99.90
15930;DHT22;8064;51.142;4.780;2023-05-07T15:18:04;19.80;99.90
15930;DHT22;8064;51.142;4.780;2023-05-07T15:20:31;19.90;99.90
15930;DHT22;8064;51.142;4.780;2023-05-07T15:22:56;19.90;99.90
15930;DHT22;8064;51.142;4.780;2023-05-07T15:25:23;19.90;99.90
15930;DHT22;8064;51.142;4.780;2023-05-07T15:27:49;19.90;99.90
15930;DHT22;8064;51.142;4.780;2023-05-07T15:30:15;19.90;99.90
15930;DHT22;8064;51.142;4.780;2023-05-07T15:32:41;19.90;99.90
15930;DHT22;8064;51.142;4.780;2023-05-07T15:35:08;19.90;99.90
15930;DHT22;8064;51.142;4.780;2023-05-07T15:37:34;19.90;99.90
15930;DHT22;8064;51.142;4.780;2023-05-07T15:40:00;19.80;99.90
15930;DHT22;8064;51.142;4.780;2023-05-07T15:42:28;19.80;99.90
15930;DHT22;8064;51.142;4.780;2023-05-07T15:44:54;19.80;99.90
15930;DHT22;8064;51.142;4.780;2023-05-07T15:47:20;19.80;99.90
15930;DHT22;8064;51.142;4.780;2023-05-07T15:49:46;19.80;99.90
15930;DHT22;8064;51.142;4.780;2023-05-07T15:52:12;19.80;99.90
15930;DHT22;8064;51.142;4.780;2023-05-07T15:54:40;19.80;99.90